Time;durP1;ratioP1;P1;durP2;ratioP2;P2;SDS_P1;SDS_P2;PMS_P1;PMS_P2;Temp;Humidity;BMP_temperature;BMP_pressure;BME280_temperature;BME280_humidity;BME280_pressure;Samples;Min_cycle;Max_cycle;Signal;HPM_P1;HPM_P2
2024/04/18 00:00:30;;;;;;;3.05;1.15;;;;;;;21.02;30.69;101154.47;4550134;26;20013;-62
2024/04/18 00:02:32;;;;;;;;;;;;;;;21.03;30.36;101159.72;4572994;25;20001;-62
2024/04/18 00:04:34;;;;;;;2.20;0.90;;;;;;;20.96;30.63;101155.81;4558814;26;19924;-62
2024/04/18 00:06:36;;;;;;;2.47;0.80;;;;;;;20.90;30.59;101145.56;4563026;26;20001;-62
2024/04/18 00:08:38;;;;;;;2.38;0.80;;;;;;;21.03;31.04;101156.19;4569458;26;20002;-62
2024/04/18 00:10:43;;;;;;;;;;;;;;;21.02;30.57;101155.34;4550782;26;20002;-62
2024/04/18 00:12:45;;;;;;;3.60;0.80;;;;;;;21.02;30.58;101154.47;4572697;25;19923;-62
2024/04/18 00:14:46;;;;;;;;;;;;;;;21.05;30.55;101152.44;4561461;25;20012;-62
2024/04/18 00:16:48;;;;;;;1.67;0.80;;;;;;;21.00;30.52;101162.63;4560470;26;19931;-63
2024/04/18 00:18:50;;;;;;;1.38;0.70;;;;;;;20.98;31.02;101164.53;4569226;26;20020;-62
2024/04/18 00:20:52;;;;;;;;;;;;;;;20.99;31.16;101163.59;4551246;26;20006;-62
2024/04/18 00:22:53;;;;;;;2.83;0.90;;;;;;;20.94;30.54;101155.03;4585102;25;19923;-62
2024/04/18 00:24:59;;;;;;;1.33;0.80;;;;;;;20.97;31.15;101144.09;4578889;25;20289;-63
2024/04/18 00:27:01;;;;;;;2.22;0.90;;;;;;;20.99;31.09;101144.88;4555243;25;20035;-62
2024/04/18 00:29:03;;;;;;;3.00;0.80;;;;;;;20.99;31.21;101136.84;4541543;26;20320;-62
2024/04/18 00:31:05;;;;;;;;;;;;;;;21.02;30.63;101144.66;4561448;26;20050;-62
2024/04/18 00:33:06;;;;;;;2.65;0.98;;;;;;;20.99;31.07;101147.53;4542006;26;19924;-62
2024/04/18 00:35:08;;;;;;;;;;;;;;;21.03;31.17;101153.50;4548194;26;20017;-62
2024/04/18 00:37:10;;;;;;;2.25;0.80;;;;;;;20.95;30.58;101147.88;4557850;26;19924;-62
2024/04/18 00:39:12;;;;;;;;;;;;;;;21.01;31.12;101153.63;4542209;26;20293;-62
2024/04/18 00:41:13;;;;;;;2.03;0.65;;;;;;;21.00;31.20;101164.44;4561615;26;19935;-62
2024/04/18 00:43:16;;;;;;;2.35;0.80;;;;;;;21.02;30.63;101182.09;4544138;26;20002;-62
2024/04/18 00:45:19;;;;;;;1.85;0.77;;;;;;;20.92;30.96;101177.53;4544119;26;20071;-63
2024/04/18 00:47:21;;;;;;;3.25;0.82;;;;;;;20.94;30.51;101195.16;4560499;25;20054;-62
2024/04/18 00:49:25;;;;;;;2.03;0.80;;;;;;;20.98;31.06;101212.66;4541593;26;20017;-62
2024/04/18 00:51:28;;;;;;;2.10;0.77;;;;;;;20.97;30.58;101216.31;4559807;26;20009;-63
2024/04/18 00:53:34;;;;;;;2.72;0.90;;;;;;;20.95;30.98;101214.72;4544557;25;20339;-63
2024/04/18 00:55:39;;;;;;;1.80;0.70;;;;;;;20.95;30.80;101212.03;4544261;26;20006;-61
2024/04/18 00:57:44;;;;;;;2.00;0.70;;;;;;;20.98;30.41;101231.38;4560888;25;20006;-63
2024/04/18 00:59:47;;;;;;;1.75;0.73;;;;;;;20.89;31.08;101216.03;4540994;26;20002;-62
2024/04/18 01:01:52;;;;;;;3.03;1.10;;;;;;;20.98;31.03;101225.19;4559665;26;20005;-63
2024/04/18 01:03:58;;;;;;;2.05;0.77;;;;;;;20.97;30.79;101223.50;4544664;26;20002;-61
2024/04/18 01:06:01;;;;;;;3.78;0.75;;;;;;;20.95;31.39;101223.59;4544901;26;20006;-62
2024/04/18 01:08:03;;;;;;;2.15;0.70;;;;;;;20.92;31.09;101218.47;4560397;25;20018;-62
2024/04/18 01:10:05;;;;;;;2.30;0.70;;;;;;;20.96;30.79;101232.47;4541613;26;20053;-63
2024/04/18 01:12:07;;;;;;;1.98;0.75;;;;;;;20.92;30.84;101220.28;4559006;26;19997;-63
2024/04/18 01:14:11;;;;;;;1.15;0.70;;;;;;;20.94;30.77;101210.34;4545516;25;20375;-61
2024/04/18 01:16:13;;;;;;;1.92;0.70;;;;;;;20.94;31.27;101205.84;4543552;26;20002;-62
2024/04/18 01:18:17;;;;;;;1.85;0.70;;;;;;;20.90;30.49;101194.53;4551472;26;20006;-62
2024/04/18 01:20:24;;;;;;;1.80;0.70;;;;;;;20.92;30.77;101190.88;4571755;25;20391;-62
2024/04/18 01:22:27;;;;;;;2.97;0.73;;;;;;;20.92;31.22;101186.38;4568181;25;20001;-63
2024/04/18 01:24:31;;;;;;;1.98;0.73;;;;;;;20.91;31.16;101182.00;4574829;25;20029;-63
2024/04/18 01:26:32;;;;;;;1.85;0.70;;;;;;;20.93;30.92;101193.44;4568881;25;20002;-63
2024/04/18 01:28:34;;;;;;;1.38;0.52;;;;;;;20.92;31.26;101198.91;4550499;26;20362;-62
2024/04/18 01:30:36;;;;;;;2.78;0.77;;;;;;;20.92;31.03;101205.09;4570197;26;20005;-62
2024/04/18 01:32:38;;;;;;;2.67;0.80;;;;;;;20.89;31.44;101189.28;4559714;25;20005;-62
2024/04/18 01:34:40;;;;;;;1.67;0.63;;;;;;;20.92;31.02;101201.56;4548277;25;20010;-62
2024/04/18 01:36:42;;;;;;;2.60;0.60;;;;;;;20.91;31.11;101195.34;4543436;26;20031;-62
2024/04/18 01:38:44;;;;;;;;;;;;;;;20.92;31.05;101196.22;4561887;26;20520;-62
2024/04/18 01:40:45;;;;;;;1.75;0.60;;;;;;;20.87;31.42;101200.06;4541038;26;19931;-62
2024/04/18 01:42:48;;;;;;;;;;;;;;;20.89;31.32;101200.81;4553789;26;20001;-62
2024/04/18 01:44:51;;;;;;;1.88;0.50;;;;;;;20.80;31.07;101196.13;4550667;26;20365;-62
2024/04/18 01:46:53;;;;;;;2.83;0.60;;;;;;;20.79;31.45;101189.09;4543220;26;20002;-62
2024/04/18 01:48:55;;;;;;;2.03;0.68;;;;;;;20.80;30.95;101182.75;4559781;25;20005;-62
2024/04/18 01:50:57;;;;;;;2.22;0.52;;;;;;;20.84;31.47;101192.28;4541111;26;20006;-62
2024/04/18 01:52:58;;;;;;;1.88;0.70;;;;;;;20.87;31.44;101184.03;4550616;26;20005;-62
2024/04/18 01:55:00;;;;;;;1.77;0.60;;;;;;;20.88;31.61;101187.56;4553363;25;20002;-61
2024/04/18 01:57:03;;;;;;;1.23;0.57;;;;;;;20.88;31.36;101190.25;4541222;26;20002;-62
2024/04/18 01:59:04;;;;;;;0.98;0.50;;;;;;;20.91;31.37;101198.03;4547894;26;20002;-62
2024/04/18 02:01:06;;;;;;;1.98;0.57;;;;;;;20.86;30.80;101190.38;4571519;26;20027;-61
2024/04/18 02:03:08;;;;;;;1.40;0.40;;;;;;;20.81;31.01;101181.81;4564003;26;20394;-62
2024/04/18 02:05:10;;;;;;;;;;;;;;;20.89;30.84;101200.81;4556058;26;20001;-61
2024/04/18 02:07:12;;;;;;;1.58;0.43;;;;;;;20.86;31.50;101198.38;4571203;26;19923;-61
2024/04/18 02:09:14;;;;;;;1.02;0.40;;;;;;;20.85;30.83;101202.03;4547753;26;20003;-62
2024/04/18 02:11:16;;;;;;;1.20;0.40;;;;;;;20.87;31.46;101202.75;4569514;26;20001;-60
2024/04/18 02:13:17;;;;;;;0.68;0.40;;;;;;;20.84;31.47;101204.78;4566023;25;20462;-61
2024/04/18 02:15:19;;;;;;;1.58;0.50;;;;;;;20.85;31.14;101209.16;4552753;26;20002;-62
2024/04/18 02:17:21;;;;;;;1.42;0.43;;;;;;;20.84;31.15;101204.78;4570926;25;20025;-62
2024/04/18 02:19:26;;;;;;;1.48;0.50;;;;;;;20.89;30.82;101210.69;4550246;26;20039;-62
2024/04/18 02:21:28;;;;;;;1.08;0.50;;;;;;;20.90;31.45;101212.41;4567374;26;20042;-62
2024/04/18 02:23:30;;;;;;;1.02;0.40;;;;;;;20.91;31.11;101216.75;4577109;25;20452;-61
2024/04/18 02:25:32;;;;;;;2.03;0.60;;;;;;;20.91;31.11;101224.78;4540507;26;20092;-62
2024/04/18 02:27:38;;;;;;;1.98;0.65;;;;;;;20.89;31.45;101224.03;4540068;26;20006;-61
2024/04/18 02:29:40;;;;;;;1.55;0.45;;;;;;;20.92;31.30;101222.97;4557235;26;20036;-62
2024/04/18 02:31:42;;;;;;;;;;;;;;;20.92;31.67;101225.63;4546054;25;20344;-62
2024/04/18 02:33:47;;;;;;;1.05;0.32;;;;;;;20.83;31.39;101219.13;4542465;26;19935;-61
2024/04/18 02:35:49;;;;;;;0.88;0.40;;;;;;;20.84;31.64;101226.16;4560942;26;20348;-61
2024/04/18 02:37:51;;;;;;;1.02;0.50;;;;;;;20.83;31.63;101233.34;4540270;26;20003;-62
2024/04/18 02:39:52;;;;;;;;;;;;;;;20.85;31.21;101242.13;4555819;26;20017;-62
2024/04/18 02:41:54;;;;;;;0.88;0.30;;;;;;;20.81;31.40;101248.63;4546965;26;19960;-62
2024/04/18 02:43:56;;;;;;;1.00;0.40;;;;;;;20.81;31.00;101242.44;4542222;26;20074;-61
2024/04/18 02:45:58;;;;;;;1.63;0.43;;;;;;;20.85;31.87;101249.28;4560309;26;20006;-61
2024/04/18 02:47:59;;;;;;;1.08;0.35;;;;;;;20.81;31.15;101240.59;4540095;26;20017;-62
2024/04/18 02:50:01;;;;;;;;;;;;;;;20.89;31.18;101250.78;4552272;26;20009;-62
2024/04/18 02:52:03;;;;;;;0.65;0.40;;;;;;;20.85;31.49;101243.94;4550205;26;19931;-63
2024/04/18 02:54:06;;;;;;;1.02;0.38;;;;;;;20.83;31.33;101232.50;4541983;26;20006;-62
2024/04/18 02:56:07;;;;;;;1.08;0.47;;;;;;;20.81;31.29;101221.06;4559802;26;20002;-61
2024/04/18 02:58:09;;;;;;;2.38;0.50;;;;;;;20.83;31.12;101227.16;4540303;26;20013;-61
2024/04/18 03:00:13;;;;;;;0.75;0.40;;;;;;;20.83;31.39;101227.16;4551982;26;20005;-62
2024/04/18 03:02:15;;;;;;;2.08;0.50;;;;;;;20.82;31.29;101222.78;4555405;25;20010;-62
2024/04/18 03:04:18;;;;;;;1.10;0.50;;;;;;;20.82;31.71;101225.44;4542946;26;20014;-62
2024/04/18 03:06:19;;;;;;;1.63;0.60;;;;;;;20.80;31.93;101224.69;4550887;26;20002;-62
2024/04/18 03:08:21;;;;;;;1.33;0.40;;;;;;;20.78;31.79;101218.59;4573503;26;20016;-62
2024/04/18 03:10:23;;;;;;;;;;;;;;;20.86;31.05;101237.63;4565662;25;20328;-61
2024/04/18 03:12:28;;;;;;;1.67;0.40;;;;;;;20.81;32.09;101234.41;4558011;26;19923;-62
2024/04/18 03:14:30;;;;;;;1.38;0.50;;;;;;;20.83;31.44;101238.69;4571493;26;20073;-62
2024/04/18 03:16:32;;;;;;;1.15;0.45;;;;;;;20.85;31.95;101241.25;4550860;25;20010;-62
2024/04/18 03:18:34;;;;;;;;;;;;;;;20.85;31.74;101247.47;4573225;26;20001;-62
2024/04/18 03:20:36;;;;;;;;;;;;;;;20.80;31.99;101249.59;4568030;26;19932;-62
2024/04/18 03:22:40;;;;;;;;;;;;;;;20.79;31.45;101253.25;4566631;25;19926;-61
2024/04/18 03:24:42;;;;;;;;;;;;;;;20.77;31.43;101252.50;4604666;25;19922;-62
2024/04/18 03:26:44;;;;;;;;;;;;;;;20.76;31.31;101258.81;4568684;25;20259;-62
2024/04/18 03:28:45;;;;;;;;;;;;;;;20.73;32.12;101251.00;4545985;25;19924;-62
2024/04/18 03:30:47;;;;;;;;;;;;;;;20.71;32.25;101250.22;4545895;26;20438;-63
2024/04/18 03:32:49;;;;;;;;;;;;;;;20.70;31.39;101257.38;4562920;25;19987;-62
2024/04/18 03:34:51;;;;;;;;;;;;;;;20.73;31.37;101259.03;4543320;26;19924;-62
2024/04/18 03:36:54;;;;;;;;;;;;;;;20.73;31.35;101254.53;4559935;26;19934;-61
2024/04/18 03:38:56;;;;;;;;;;;;;;;20.74;31.92;101269.59;4548772;25;19931;-60
2024/04/18 03:41:01;;;;;;;;;;;;;;;20.74;31.85;101264.25;4544884;26;19947;-60
2024/04/18 03:43:03;;;;;;;;;;;;;;;20.73;31.25;101267.06;4563596;26;19924;-60
2024/04/18 03:45:05;;;;;;;;;;;;;;;20.72;32.20;101276.88;4543028;26;19931;-61
2024/04/18 03:47:06;;;;;;;;;;;;;;;20.73;31.39;101272.41;4557978;26;20208;-60
2024/04/18 03:49:09;;;;;;;;;;;;;;;20.73;31.53;101272.41;4550354;26;19923;-60
2024/04/18 03:51:11;;;;;;;;;;;;;;;20.73;32.13;101283.09;4545213;26;19931;-60
2024/04/18 03:53:13;;;;;;;;;;;;;;;20.73;32.03;101283.94;4563523;26;19924;-61
2024/04/18 03:55:14;;;;;;;;;;;;;;;20.70;32.15;101284.09;4542772;26;20009;-61
2024/04/18 03:57:16;;;;;;;;;;;;;;;20.69;31.24;101287.75;4554975;26;19931;-61
2024/04/18 03:59:18;;;;;;;;;;;;;;;20.68;31.90;101295.88;4551413;26;19923;-61
2024/04/18 04:01:19;;;;;;;;;;;;;;;20.70;31.27;101300.13;4545497;26;19924;-60
2024/04/18 04:03:21;;;;;;;;;;;;;;;20.69;31.63;101292.22;4563580;26;19924;-60
2024/04/18 04:05:23;;;;;;;;;;;;;;;20.71;32.05;101303.69;4542935;26;20434;-60
2024/04/18 04:07:25;;;;;;;;;;;;;;;20.72;31.46;101305.44;4551874;26;19923;-60
2024/04/18 04:09:27;;;;;;;;;;;;;;;20.74;31.85;101304.34;4555316;26;20370;-61
2024/04/18 04:11:29;;;;;;;;;;;;;;;20.74;31.65;101303.50;4542217;26;19988;-61
2024/04/18 04:13:31;;;;;;;;;;;;;;;20.72;31.39;101300.94;4565465;26;19931;-61
2024/04/18 04:15:35;;;;;;;;;;;;;;;20.71;31.24;101301.84;4542960;26;19936;-60
2024/04/18 04:17:37;;;;;;;;;;;;;;;20.71;31.30;101299.19;4549934;26;19924;-61
2024/04/18 04:19:40;;;;;;;;;;;;;;;20.71;32.00;101306.34;4557781;26;19969;-60
2024/04/18 04:21:42;;;;;;;;;;;;;;;20.69;31.30;101301.13;4542700;26;19935;-60
2024/04/18 04:23:44;;;;;;;;;;;;;;;20.69;31.96;101308.28;4552209;25;19930;-60
2024/04/18 04:25:45;;;;;;;;;;;;;;;20.68;32.21;101314.56;4572607;26;19923;-60
2024/04/18 04:27:47;;;;;;;;;;;;;;;20.66;31.54;101314.69;4568123;26;19986;-60
2024/04/18 04:29:49;;;;;;;;;;;;;;;20.67;31.38;101312.84;4555020;26;19931;-61
2024/04/18 04:31:51;;;;;;;;;;;;;;;20.69;31.61;101317.16;4571319;26;20526;-61
2024/04/18 04:33:53;;;;;;;;;;;;;;;20.70;31.43;101313.50;4553676;26;19930;-60
2024/04/18 04:35:55;;;;;;;;;;;;;;;20.70;32.27;101326.03;4568848;26;19947;-61
2024/04/18 04:37:58;;;;;;;;;;;;;;;20.70;32.18;101331.38;4569926;25;19960;-63
2024/04/18 04:39:59;;;;;;;;;;;;;;;20.68;31.96;101336.81;4552038;25;19938;-61
2024/04/18 04:42:01;;;;;;;;;;;;;;;20.68;31.70;101331.47;4572923;26;19931;-61
2024/04/18 04:44:03;;;;;;;;;;;;;;;20.67;31.84;101337.78;4556623;26;19991;-61
2024/04/18 04:46:05;;;;;;;;;;;;;;;20.67;31.70;101355.63;4566098;26;19930;-61
2024/04/18 04:48:07;;;;;;;;;;;;;;;20.66;32.34;101356.59;4569996;26;20390;-61
2024/04/18 04:50:11;;;;;;;;;;;;;;;20.64;31.51;101362.03;4551774;26;20373;-61
2024/04/18 04:52:13;;;;;;;;;;;;;;;20.65;31.50;101370.94;4572467;25;19923;-60
2024/04/18 04:54:15;;;;;;;;;;;;;;;20.66;32.17;101369.97;4558532;26;19924;-61
2024/04/18 04:56:16;;;;;;;;;;;;;;;20.65;32.35;101376.28;4563601;26;20338;-60
2024/04/18 04:58:18;;;;;;;;;;;;;;;20.64;31.83;101371.88;4570102;26;19951;-60
2024/04/18 05:00:20;;;;;;;;;;;;;;;20.63;31.66;101372.84;4551767;26;20357;-60
2024/04/18 05:02:21;;;;;;;;;;;;;;;20.64;31.58;101378.06;4573033;26;19923;-60
2024/04/18 05:04:23;;;;;;;;;;;;;;;20.65;31.41;101384.28;4561592;26;19923;-60
2024/04/18 05:06:25;;;;;;;;;;;;;;;20.65;31.95;101400.31;4559982;26;19960;-60
2024/04/18 05:08:27;;;;;;;;;;;;;;;20.65;31.91;101403.00;4572019;25;19959;-60
2024/04/18 05:10:29;;;;;;;;;;;;;;;20.62;31.68;101406.75;4549912;26;19932;-60
2024/04/18 05:12:30;;;;;;;;;;;;;;;20.59;32.18;101412.28;4572486;26;19923;-60
2024/04/18 05:14:32;;;;;;;;;;;;;;;20.58;31.71;101416.78;4564267;26;19963;-61
2024/04/18 05:16:34;;;;;;;;;;;;;;;20.58;31.63;101415.91;4557248;26;19931;-61
2024/04/18 05:18:36;;;;;;;;;;;;;;;20.57;31.59;101424.88;4572693;26;19954;-61
2024/04/18 05:20:38;;;;;;;;;;;;;;;20.61;31.59;101430.88;4550060;26;19931;-60
2024/04/18 05:22:39;;;;;;;;;;;;;;;20.61;32.38;101428.19;4580369;25;19930;-61
2024/04/18 05:24:41;;;;;;;;;;;;;;;20.63;31.53;101432.47;4582585;25;19989;-61
2024/04/18 05:26:43;;;;;;;;;;;;;;;20.64;31.96;101425.34;4559744;26;19924;-61
2024/04/18 05:31:05;;;;;;;;;;;;;;;20.63;31.88;101423.63;4560980;26;19923;-60
2024/04/18 05:33:07;;;;;;;;;;;;;;;20.62;32.02;101435.25;4541689;26;19924;-60
2024/04/18 05:35:08;;;;;;;;;;;;;;;20.58;32.05;101440.81;4547508;26;19963;-60
2024/04/18 05:37:10;;;;;;;;;;;;;;;20.58;31.99;101437.28;4558049;26;20434;-61
2024/04/18 05:39:14;;;;;;;;;;;;;;;20.58;32.13;101442.63;4541907;26;19931;-61
2024/04/18 05:41:16;;;;;;;;;;;;;;;20.56;32.21;101450.75;4561864;26;19928;-61
2024/04/18 05:43:18;;;;;;;;;;;;;;;20.56;31.43;101445.41;4543330;26;20335;-61
2024/04/18 05:45:19;;;;;;;;;;;;;;;20.57;31.59;101451.59;4545024;26;20522;-60
2024/04/18 05:47:21;;;;;;;;;;;;;;;20.57;32.20;101460.50;4560447;26;20298;-61
2024/04/18 05:49:23;;;;;;;;;;;;;;;20.58;32.29;101461.34;4541334;26;20434;-60
2024/04/18 05:51:25;;;;;;;;;;;;;;;20.58;32.00;101472.03;4558378;26;20392;-61
2024/04/18 05:53:26;;;;;;;;;;;;;;;20.57;31.47;101476.53;4546496;26;19936;-61
2024/04/18 05:55:28;;;;;;;;;;;;;;;20.56;32.25;101479.28;4543711;26;19931;-61
2024/04/18 05:57:30;;;;;;;;;;;;;;;20.56;31.53;101485.50;4562173;26;20273;-60
2024/04/18 05:59:31;;;;;;;;;;;;;;;20.56;31.64;101488.16;4541671;26;19924;-61
2024/04/18 06:01:33;;;;;;;;;;;;;;;20.55;32.27;101491.78;4555409;26;19957;-60
2024/04/18 06:03:35;;;;;;;;;;;;;;;20.54;32.25;101500.75;4549332;26;19924;-61
2024/04/18 06:05:37;;;;;;;;;;;;;;;20.54;31.79;101502.59;4543626;26;19931;-60
2024/04/18 06:07:39;;;;;;;;;;;;;;;20.52;31.70;101508.03;4561673;26;19924;-61
2024/04/18 06:09:44;;;;;;;;;;;;;;;20.50;32.01;101501.94;4541073;26;20390;-61
2024/04/18 06:11:48;;;;;;;;;;;;;;;20.51;32.38;101513.47;4553525;26;20376;-60
2024/04/18 06:13:49;;;;;;;;;;;;;;;20.52;32.37;101513.38;4550664;25;19996;-60
2024/04/18 06:15:51;;;;;;;;;;;;;;;20.52;32.10;101518.72;4543410;26;20114;-61
2024/04/18 06:17:53;;;;;;;;;;;;;;;20.53;32.31;101517.75;4561569;26;19935;-61
2024/04/18 06:19:55;;;;;;;;;;;;;;;20.53;31.99;101516.91;4540794;26;20324;-60
2024/04/18 06:21:59;;;;;;;;;;;;;;;20.54;31.75;101513.28;4551440;25;19923;-61
2024/04/18 06:24:01;;;;;;;;;;;;;;;20.53;31.44;101519.56;4583673;25;19998;-61
2024/04/18 06:26:02;;;;;;;;;;;;;;;20.53;31.63;101519.56;4570595;25;20319;-61
2024/04/18 06:28:11;;;;;;;;;;;;;;;20.53;31.69;101528.44;4548987;26;20373;-61
2024/04/18 06:30:13;;;;;;;;;;;;;;;20.54;32.06;101532.00;4571516;25;19930;-60
2024/04/18 06:32:14;;;;;;;;;;;;;;;20.52;32.06;101532.09;4559609;25;19923;-60
2024/04/18 06:34:16;;;;;;;;;;;;;;;20.51;32.08;101537.50;4554386;26;19931;-60
2024/04/18 06:36:18;;;;;;;;;;;;;;;20.49;31.95;101542.13;4543775;26;19936;-60
2024/04/18 06:38:21;;;;;;;;;;;;;;;20.47;32.37;101541.34;4551033;26;19951;-60
2024/04/18 06:40:24;;;;;;;;;;;;;;;20.48;31.98;101541.25;4574575;25;19924;-60
2024/04/18 06:42:26;;;;;;;;;;;;;;;20.47;31.66;101544.88;4567050;25;20346;-61
2024/04/18 06:44:27;;;;;;;;;;;;;;;20.47;31.39;101554.72;4558532;26;19935;-60
2024/04/18 06:46:29;;;;;;;;;;;;;;;20.47;31.47;101552.88;4574158;26;19951;-62
2024/04/18 06:48:31;;;;;;;;;;;;;;;20.50;31.32;101552.72;4552276;26;20451;-60
2024/04/18 06:50:32;;;;;;;;;;;;;;;20.50;31.47;101559.84;4572194;26;19991;-61
2024/04/18 06:52:34;;;;;;;;;;;;;;;20.50;32.00;101563.41;4569847;25;19923;-60
2024/04/18 06:54:36;;;;;;;;;;;;;;;20.53;31.34;101565.84;4552351;26;19931;-60
2024/04/18 06:56:38;;;;;;;;;;;;;;;20.55;31.19;101571.13;4572287;26;20210;-61
2024/04/18 06:58:40;;;;;;;;;;;;;;;20.51;32.09;101570.47;4550484;25;19930;-61
2024/04/18 07:00:43;;;;;;;;;;;;;;;20.53;31.49;101573.03;4568781;26;19955;-60
2024/04/18 07:02:45;;;;;;;;;;;;;;;20.49;31.67;101584.88;4570602;25;19935;-60
2024/04/18 07:04:46;;;;;;;;;;;;;;;20.51;32.22;101586.50;4553220;26;19930;-60
2024/04/18 07:06:51;;;;;;;;;;;;;;;20.51;31.47;101593.63;4574240;26;19931;-61
2024/04/18 07:08:53;;;;;;;;;;;;;;;20.51;32.20;101590.97;4557586;26;20401;-61
2024/04/18 07:10:58;;;;;;;;;;;;;;;20.50;31.88;101592.78;4567437;26;20389;-61
2024/04/18 07:13:00;;;;;;;;;;;;;;;20.51;31.52;101597.19;4571313;25;19931;-61
2024/04/18 07:15:07;;;;;;;;;;;;;;;20.51;31.85;101602.53;4552941;25;20361;-61
2024/04/18 07:17:09;;;;;;;;;;;;;;;20.52;31.37;101598.03;4572923;26;19931;-59
2024/04/18 07:19:11;;;;;;;;;;;;;;;20.51;32.03;101599.84;4558134;26;19936;-60
2024/04/18 07:21:14;;;;;;;;;;;;;;;20.50;32.12;101606.16;4566386;26;19946;-60
2024/04/18 07:23:16;;;;;;;;;;;;;;;20.50;32.00;101606.16;4583024;25;19923;-61
2024/04/18 07:25:17;;;;;;;;;;;;;;;20.48;31.46;101612.56;4563661;26;19931;-61
2024/04/18 07:27:19;;;;;;;;;;;;;;;20.49;31.25;101611.59;4543235;26;19924;-61
2024/04/18 07:29:21;;;;;;;;;;;;;;;20.47;31.34;101610.81;4555614;26;19923;-60
2024/04/18 07:31:23;;;;;;;;;;;;;;;20.47;31.92;101600.97;4552556;25;19931;-60
2024/04/18 07:33:25;;;;;;;;;;;;;;;20.49;32.41;101616.94;4564546;26;19923;-62
2024/04/18 07:35:28;;;;;;;;;;;;;;;20.50;31.56;101619.50;4565244;26;19923;-60
2024/04/18 07:37:29;;;;;;;;;;;;;;;20.49;31.97;101619.63;4561895;25;20000;-61
2024/04/18 07:39:33;;;;;;;;;;;;;;;20.50;32.30;101623.97;4561445;25;20254;-60
2024/04/18 07:41:36;;;;;;;;;;;;;;;20.58;32.37;101632.38;4555490;26;19924;-60
2024/04/18 07:43:37;;;;;;;;;;;;;;;20.58;33.21;101641.28;4561252;25;20266;-59
2024/04/18 07:45:40;;;;;;;;;;;;;;;20.57;32.86;101642.22;4554660;26;19923;-60
2024/04/18 07:47:42;;;;;;;;;;;;;;;20.42;33.78;101644.03;4557182;25;19924;-61
2024/04/18 07:49:44;;;;;;;;;;;;;;;20.49;32.73;101652.53;4558366;25;19947;-60
2024/04/18 07:51:49;;;;;;;;;;;;;;;20.42;32.83;101654.72;4558976;26;19931;-60
2024/04/18 07:53:52;;;;;;;;;;;;;;;20.50;32.82;101650.69;4556885;25;20250;-60
2024/04/18 07:55:54;;;;;;;;;;;;;;;20.58;32.57;101656.44;4554673;25;19931;-63
2024/04/18 07:57:55;;;;;;;;;;;;;;;20.58;32.94;101657.31;4557210;26;19923;-61
2024/04/18 07:59:58;;;;;;;;;;;;;;;20.66;31.88;101650.63;4557747;26;20108;-59
2024/04/18 08:02:02;;;;;;;;;;;;;;;20.68;33.16;101662.94;4562220;26;19938;-59
2024/04/18 08:04:06;;;;;;;;;;;;;;;20.68;33.36;101660.25;4557060;25;19923;-59
2024/04/18 08:06:30;;;;;;;;;;;;;;;20.70;32.95;101669.00;4557144;25;19991;-60
2024/04/18 08:08:37;;;;;;;;;;;;;;;20.76;32.87;101669.63;4556572;25;19923;-61
2024/04/18 08:10:44;;;;;;;;;;;;;;;20.77;32.82;101674.88;4558755;26;19936;-61
2024/04/18 08:13:06;;;;;;;;;;;;;;;20.74;32.20;101677.72;4555789;26;19929;-62
2024/04/18 08:15:13;;;;;;;;;;;;;;;20.84;31.78;101681.56;4555350;26;19955;-62
2024/04/18 08:17:21;;;;;;;;;;;;;;;20.87;32.32;101675.16;4557022;26;19935;-60
2024/04/18 08:19:23;;;;;;;;;;;;;;;20.84;33.02;101676.19;4557456;25;20360;-60
2024/04/18 08:21:27;;;;;;;;;;;;;;;20.85;32.69;101683.28;4561252;25;20369;-60
2024/04/18 08:23:28;;;;;;;;;;;;;;;20.83;31.91;101681.66;4555029;25;19924;-61
2024/04/18 08:25:30;;;;;;;;;;;;;;;20.86;31.99;101693.00;4555962;25;19924;-62
2024/04/18 08:27:33;;;;;;;;;;;;;;;20.87;31.65;101696.53;4556132;25;19924;-62
2024/04/18 08:29:35;;;;;;;;;;;;;;;20.91;31.57;101692.69;4556028;25;19924;-60
2024/04/18 08:31:36;;;;;;;;;;;;;;;20.97;31.98;101699.47;4551045;25;20268;-61
2024/04/18 08:33:38;;;;;;;;;;;;;;;20.96;31.46;101708.44;4559498;26;20365;-61
2024/04/18 08:35:43;;;;;;;;;;;;;;;20.98;32.38;101703.88;4557217;26;19930;-61
2024/04/18 08:37:45;;;;;;;;;;;;;;;20.96;32.11;101708.44;4555937;25;19992;-61
2024/04/18 08:39:47;;;;;;;;;;;;;;;20.95;31.62;101712.94;4556593;25;20785;-61
2024/04/18 08:41:49;;;;;;;;;;;;;;;21.04;31.31;101714.19;4553029;25;19931;-63
2024/04/18 08:43:51;;;;;;;;;;;;;;;21.04;31.79;101712.34;4555872;26;19943;-63
2024/04/18 08:45:58;;;;;;;;;;;;;;;21.09;32.15;101708.53;4557993;26;20376;-62
2024/04/18 08:48:00;;;;;;;;;;;;;;;21.16;32.03;101724.06;4555569;26;19931;-66
2024/04/18 08:50:04;;;;;;;;;;;;;;;21.11;31.91;101714.66;4556974;26;19960;-64
2024/04/18 08:52:06;;;;;;;;;;;;;;;21.14;31.50;101714.44;4553485;26;19992;-62
2024/04/18 08:54:08;;;;;;;;;;;;;;;21.17;30.90;101722.28;4572332;26;19923;-65
2024/04/18 08:56:13;;;;;;;;;;;;;;;21.26;30.75;101720.81;4569752;26;19923;-65
2024/04/18 08:58:15;;;;;;;;;;;;;;;21.25;30.66;101719.94;4550792;26;20391;-63
2024/04/18 09:00:17;;;;;;;;;;;;;;;21.30;30.53;101719.66;4572564;25;20368;-64
2024/04/18 09:02:20;;;;;;;;;;;;;;;21.32;31.12;101726.63;4561764;25;19956;-63
2024/04/18 09:04:21;;;;;;;;;;;;;;;21.35;30.47;101722.88;4560190;26;19923;-63
2024/04/18 09:06:23;;;;;;;;;;;;;;;21.31;30.17;101730.28;4570175;26;19955;-64
2024/04/18 09:08:25;;;;;;;;;;;;;;;21.27;30.61;101728.75;4550122;26;20358;-62
2024/04/18 09:10:30;;;;;;;;;;;;;;;21.16;30.56;101734.78;4551191;25;19931;-62
2024/04/18 09:12:35;;;;;;;;;;;;;;;21.16;31.46;101737.44;4546752;26;19923;-62
2024/04/18 09:14:37;;;;;;;;;;;;;;;21.14;30.66;101742.06;4551704;26;19991;-62
2024/04/18 09:16:39;;;;;;;;;;;;;;;21.12;31.30;101743.09;4563690;25;19923;-62
2024/04/18 09:18:41;;;;;;;;;;;;;;;21.09;30.62;101741.47;4561224;26;19931;-62
2024/04/18 09:20:43;;;;;;;;;;;;;;;21.07;30.40;101746.09;4570004;25;19956;-64
2024/04/18 09:22:45;;;;;;;;;;;;;;;21.08;30.88;101755.81;4567419;25;19931;-61
2024/04/18 09:24:46;;;;;;;;;;;;;;;21.02;30.38;101749.06;4570830;26;20249;-61
2024/04/18 09:26:49;;;;;;;;;;;;;;;20.99;30.93;101759.09;4571186;25;19924;-62
2024/04/18 09:28:51;;;;;;;;;;;;;;;20.96;30.44;101761.94;4562592;25;19931;-62
2024/04/18 09:30:56;;;;;;;;;;;;;;;20.92;30.77;101761.28;4563545;26;20004;-60
2024/04/18 09:33:00;;;;;;;;;;;;;;;20.84;30.96;101764.44;4546843;26;19947;-60
2024/04/18 09:35:11;;;;;;;;;;;;;;;20.86;30.63;101767.00;4557963;26;19931;-63
2024/04/18 09:37:13;;;;;;;;;;;;;;;20.84;30.72;101769.78;4567363;25;19924;-61
2024/04/18 09:39:27;;;;;;;;;;;;;;;20.78;30.96;101769.28;4567851;25;19923;-63
2024/04/18 09:41:30;;;;;;;;;;;;;;;20.79;30.69;101771.00;4540136;26;19931;-63
2024/04/18 09:43:52;;;;;;;;;;;;;;;20.77;30.46;101770.25;4559094;26;19924;-63
2024/04/18 09:46:00;;;;;;;;;;;;;;;20.68;30.55;101779.66;4549238;25;20395;-62
2024/04/18 09:48:03;;;;;;;;;;;;;;;20.59;31.30;101781.94;4545328;26;19999;-62
2024/04/18 09:50:05;;;;;;;;;;;;;;;20.55;31.31;101783.09;4563634;25;20003;-61
2024/04/18 09:52:08;;;;;;;;;;;;;;;20.53;31.05;101778.78;4539514;26;19956;-61
2024/04/18 09:54:11;;;;;;;;;;;;;;;20.47;31.32;101777.34;4557463;26;20337;-60
2024/04/18 09:56:13;;;;;;;;;;;;;;;20.44;31.40;101790.91;4567124;26;19931;-62
2024/04/18 09:58:17;;;;;;;;;;;;;;;20.43;30.57;101781.16;4567898;25;19979;-62
2024/04/18 10:00:21;;;;;;;;;;;;;;;20.43;30.66;101786.50;4569809;25;19923;-60
2024/04/18 10:02:23;;;;;;;;;;;;;;;20.42;30.45;101782.97;4568928;25;19934;-61
2024/04/18 10:04:26;;;;;;;;;;;;;;;20.46;30.50;101788.13;4566720;25;20014;-60
2024/04/18 10:06:36;;;;;;;;;;;;;;;20.44;30.89;101780.22;4555616;25;19924;-60
2024/04/18 10:08:49;;;;;;;;;;;;;;;20.47;30.69;101781.84;4566983;25;20361;-60
2024/04/18 10:10:51;;;;;;;;;;;;;;;20.49;31.10;101787.97;4566352;25;19923;-61
2024/04/18 10:12:55;;;;;;;;;;;;;;;20.49;30.78;101788.81;4569342;25;19931;-62
2024/04/18 10:14:57;;;;;;;;;;;;;;;20.52;30.71;101790.44;4564693;25;19931;-61